createdAt,value
2023-01-30T00:00:30.610Z,32.53
2023-01-30T00:02:55.305Z,32.54
2023-01-30T00:05:21.737Z,32.53
2023-01-30T00:07:48.030Z,32.57
2023-01-30T00:10:14.481Z,32.61
2023-01-30T00:12:40.809Z,32.60
2023-01-30T00:15:07.195Z,32.59
2023-01-30T00:17:33.532Z,32.59
2023-01-30T00:19:59.926Z,32.64
2023-01-30T00:22:26.272Z,32.61
2023-01-30T00:24:52.745Z,32.62
2023-01-30T00:27:18.981Z,32.59
2023-01-30T00:29:54.382Z,32.62
2023-01-30T00:32:11.717Z,32.62
2023-01-30T00:34:38.105Z,32.64
2023-01-30T00:37:08.463Z,32.59
2023-01-30T00:39:30.793Z,32.64
2023-01-30T00:41:57.181Z,32.56
2023-01-30T00:44:23.523Z,32.59
2023-01-30T00:46:49.903Z,32.56
2023-01-30T00:49:16.253Z,32.56
2023-01-30T00:51:42.644Z,32.52
2023-01-30T00:54:08.973Z,32.52
2023-01-30T00:56:35.358Z,32.54
2023-01-30T00:59:01.693Z,32.55
2023-01-30T01:01:28.103Z,32.47
2023-01-30T01:03:54.443Z,32.49
2023-01-30T01:06:20.866Z,32.50
2023-01-30T01:08:47.210Z,32.47
2023-01-30T01:11:13.584Z,32.45
2023-01-30T01:13:39.925Z,32.43
2023-01-30T01:16:06.367Z,32.46
2023-01-30T01:18:32.689Z,32.44
2023-01-30T01:21:00.282Z,32.47
2023-01-30T01:23:25.413Z,32.46
2023-01-30T01:25:51.829Z,32.48
2023-01-30T01:28:18.166Z,32.48
2023-01-30T01:30:44.546Z,32.44
2023-01-30T01:33:10.939Z,32.51
2023-01-30T01:35:37.336Z,32.48
2023-01-30T01:38:03.689Z,32.46
2023-01-30T01:40:30.070Z,32.43
2023-01-30T01:42:56.418Z,32.43
2023-01-30T01:45:22.822Z,32.43
2023-01-30T01:47:49.152Z,32.36
2023-01-30T01:50:15.539Z,32.47
2023-01-30T01:52:41.870Z,32.43
2023-01-30T01:55:08.252Z,32.30
2023-01-30T01:57:34.874Z,32.33
2023-01-30T02:00:01.264Z,32.33
2023-01-30T02:02:29.907Z,32.38
2023-01-30T02:04:56.272Z,32.35
2023-01-30T02:07:22.618Z,32.35
2023-01-30T02:09:48.999Z,32.33
2023-01-30T02:12:15.333Z,32.31
2023-01-30T02:14:41.712Z,32.25
2023-01-30T02:17:08.059Z,32.30
2023-01-30T02:19:34.441Z,32.41
2023-01-30T02:22:00.783Z,32.47
2023-01-30T02:24:27.159Z,32.49
2023-01-30T02:26:53.506Z,32.47
2023-01-30T02:29:19.904Z,32.49
2023-01-30T02:31:46.302Z,32.50
2023-01-30T02:34:12.625Z,32.56
2023-01-30T02:36:38.964Z,32.64
2023-01-30T02:39:05.426Z,32.72
2023-01-30T02:41:31.774Z,32.73
2023-01-30T02:43:58.153Z,32.72
2023-01-30T02:46:24.565Z,32.75
2023-01-30T02:48:50.944Z,32.80
2023-01-30T02:51:17.314Z,32.84
2023-01-30T02:53:43.688Z,32.88
2023-01-30T02:56:10.066Z,32.91
2023-01-30T02:58:36.453Z,32.90
2023-01-30T03:01:02.844Z,32.94
2023-01-30T03:03:29.204Z,32.94
2023-01-30T03:05:55.546Z,32.94
2023-01-30T03:08:21.936Z,32.78
2023-01-30T03:10:48.269Z,32.52
2023-01-30T03:13:14.671Z,32.36
2023-01-30T03:15:41.018Z,32.25
2023-01-30T03:18:07.387Z,32.20
2023-01-30T03:20:33.728Z,31.96
2023-01-30T03:23:00.120Z,31.85
2023-01-30T03:25:26.483Z,31.72
2023-01-30T03:27:52.890Z,31.49
2023-01-30T03:30:19.224Z,31.36
2023-01-30T03:32:45.606Z,31.25
2023-01-30T03:35:11.971Z,31.17
2023-01-30T03:37:38.353Z,31.14
2023-01-30T03:40:04.699Z,31.02
2023-01-30T03:42:31.071Z,30.98
2023-01-30T03:44:57.411Z,30.77
2023-01-30T03:47:23.787Z,30.61
2023-01-30T03:49:50.127Z,30.56
2023-01-30T03:52:16.526Z,30.51
2023-01-30T03:54:42.867Z,30.33
2023-01-30T03:57:09.246Z,30.30
2023-01-30T03:59:35.620Z,30.37
2023-01-30T04:02:02.030Z,30.07
2023-01-30T04:04:28.335Z,30.05
2023-01-30T04:06:54.735Z,29.85
2023-01-30T04:09:21.073Z,29.85
2023-01-30T04:11:47.455Z,29.85
2023-01-30T04:14:13.793Z,29.79
2023-01-30T04:16:40.203Z,29.66
2023-01-30T04:19:06.554Z,29.53
2023-01-30T04:21:32.921Z,29.52
2023-01-30T04:23:59.262Z,29.28
2023-01-30T04:26:25.721Z,29.34
2023-01-30T04:28:52.001Z,29.54
2023-01-30T04:31:18.404Z,29.74
2023-01-30T04:33:44.725Z,29.67
2023-01-30T04:36:11.110Z,29.57
2023-01-30T04:38:37.447Z,29.47
2023-01-30T04:41:03.909Z,29.47
2023-01-30T04:43:30.266Z,29.46
2023-01-30T04:45:56.639Z,29.46
2023-01-30T04:48:22.977Z,29.37
2023-01-30T04:50:49.361Z,29.38
2023-01-30T04:53:15.700Z,29.37
2023-01-30T04:55:42.092Z,29.28
2023-01-30T04:58:08.440Z,29.24
2023-01-30T05:00:34.864Z,29.21
2023-01-30T05:03:01.165Z,29.17
2023-01-30T05:05:27.552Z,29.05
2023-01-30T05:07:53.892Z,28.97
2023-01-30T05:10:20.283Z,28.93
2023-01-30T05:12:46.624Z,28.82
2023-01-30T05:15:13.014Z,28.73
2023-01-30T05:17:39.353Z,28.70
2023-01-30T05:20:05.748Z,28.62
2023-01-30T05:22:32.080Z,30.76
2023-01-30T05:24:58.491Z,31.17
2023-01-30T05:27:24.815Z,29.49
2023-01-30T05:29:51.203Z,29.65
2023-01-30T05:32:17.551Z,28.69
2023-01-30T05:34:43.937Z,28.61
2023-01-30T05:37:10.298Z,28.44
2023-01-30T05:39:36.681Z,28.18
2023-01-30T05:42:03.027Z,28.14
2023-01-30T05:44:29.412Z,28.08
2023-01-30T05:46:55.874Z,28.00
2023-01-30T05:49:22.145Z,27.76
2023-01-30T05:51:50.558Z,27.44
2023-01-30T05:54:14.956Z,27.33
2023-01-30T05:56:41.325Z,27.64
2023-01-30T05:59:07.717Z,27.51
2023-01-30T06:01:34.069Z,27.47
2023-01-30T06:04:00.505Z,27.29
2023-01-30T06:06:26.818Z,27.24
2023-01-30T06:08:53.185Z,26.76
2023-01-30T06:11:19.564Z,27.17
2023-01-30T06:13:45.925Z,26.84
2023-01-30T06:16:12.592Z,27.14
2023-01-30T06:18:38.893Z,27.08
2023-01-30T06:21:05.231Z,27.02
2023-01-30T06:23:31.612Z,26.97
2023-01-30T06:25:57.981Z,27.22
2023-01-30T06:28:24.405Z,26.96
2023-01-30T06:30:50.858Z,26.79
2023-01-30T06:33:17.124Z,26.69
2023-01-30T06:35:43.472Z,26.86
2023-01-30T06:38:09.946Z,27.27
2023-01-30T06:40:36.385Z,27.45
2023-01-30T06:43:02.755Z,27.86
2023-01-30T06:45:29.097Z,28.20
2023-01-30T06:47:55.526Z,28.58
2023-01-30T06:50:21.859Z,28.57
2023-01-30T06:52:48.254Z,28.41
2023-01-30T06:55:14.604Z,28.43
2023-01-30T06:57:40.988Z,28.28
2023-01-30T07:00:07.344Z,27.92
2023-01-30T07:02:33.737Z,27.81
2023-01-30T07:05:00.090Z,27.76
2023-01-30T07:07:26.519Z,27.57
2023-01-30T07:10:06.979Z,27.42
2023-01-30T07:12:19.290Z,27.08
2023-01-30T07:14:45.633Z,26.95
2023-01-30T07:17:12.070Z,27.04
2023-01-30T07:19:38.378Z,26.79
2023-01-30T07:22:04.770Z,26.73
2023-01-30T07:24:31.121Z,26.54
2023-01-30T07:26:57.515Z,26.38
2023-01-30T07:29:23.848Z,26.36
2023-01-30T07:31:50.315Z,26.41
2023-01-30T07:34:16.604Z,26.56
2023-01-30T07:36:42.988Z,26.73
2023-01-30T07:39:09.325Z,26.99
2023-01-30T07:41:35.711Z,27.35
2023-01-30T07:44:02.063Z,27.15
2023-01-30T07:46:28.445Z,27.15
2023-01-30T07:48:54.796Z,27.25
2023-01-30T07:51:21.188Z,27.12
2023-01-30T07:53:47.537Z,27.25
2023-01-30T07:56:13.993Z,27.06
2023-01-30T07:58:40.354Z,27.08
2023-01-30T08:01:06.779Z,27.35
2023-01-30T08:03:33.114Z,27.21
2023-01-30T08:05:59.497Z,27.37
2023-01-30T08:08:25.880Z,27.50
2023-01-30T08:10:52.313Z,27.82
2023-01-30T08:13:18.661Z,27.74
2023-01-30T08:15:45.120Z,27.53
2023-01-30T08:18:11.495Z,27.28
2023-01-30T08:20:37.901Z,27.30
2023-01-30T08:23:04.238Z,27.37
2023-01-30T08:25:30.650Z,27.37
2023-01-30T08:27:56.984Z,27.31
2023-01-30T08:30:23.468Z,27.17
2023-01-30T08:32:49.735Z,27.25
2023-01-30T08:35:16.111Z,27.34
2023-01-30T08:37:42.509Z,27.50
2023-01-30T08:40:08.901Z,27.47
2023-01-30T08:42:36.203Z,27.57
2023-01-30T08:45:01.635Z,27.89
2023-01-30T08:47:27.971Z,27.71
2023-01-30T08:49:54.372Z,27.76
2023-01-30T08:52:20.725Z,27.97
2023-01-30T08:54:47.110Z,28.08
2023-01-30T08:57:13.453Z,28.06
2023-01-30T08:59:39.867Z,27.98
2023-01-30T09:02:06.339Z,27.94
2023-01-30T09:04:32.615Z,27.76
2023-01-30T09:06:59.012Z,27.98
2023-01-30T09:09:25.375Z,27.66
2023-01-30T09:11:51.719Z,27.54
2023-01-30T09:14:18.113Z,27.51
2023-01-30T09:16:44.517Z,27.51
2023-01-30T09:19:10.856Z,27.54
2023-01-30T09:21:37.222Z,27.43
2023-01-30T09:24:03.629Z,27.59
2023-01-30T09:26:30.013Z,27.34
2023-01-30T09:28:56.427Z,27.31
2023-01-30T09:31:22.847Z,27.28
2023-01-30T09:33:49.226Z,27.45
2023-01-30T09:36:15.568Z,27.49
2023-01-30T09:38:41.974Z,27.57
2023-01-30T09:41:08.328Z,27.63
2023-01-30T09:43:34.716Z,27.79
2023-01-30T09:46:01.127Z,27.88
2023-01-30T09:48:27.466Z,28.01
2023-01-30T09:50:55.342Z,28.06
2023-01-30T09:53:20.267Z,27.98
2023-01-30T09:55:46.654Z,27.92
2023-01-30T09:58:13.038Z,27.81
2023-01-30T10:00:39.411Z,27.95
2023-01-30T10:03:05.876Z,27.73
2023-01-30T10:05:32.197Z,27.50
2023-01-30T10:07:58.679Z,27.59
2023-01-30T10:10:24.970Z,27.61
2023-01-30T10:12:51.363Z,27.76
2023-01-30T10:15:17.757Z,27.75
2023-01-30T10:17:44.153Z,27.75
2023-01-30T10:20:10.493Z,27.70
2023-01-30T10:22:36.953Z,27.82
2023-01-30T10:25:03.297Z,27.63
2023-01-30T10:27:31.363Z,27.73
2023-01-30T10:29:56.027Z,27.70
2023-01-30T10:32:22.425Z,27.86
2023-01-30T10:34:48.778Z,27.97
2023-01-30T10:37:15.199Z,27.95
2023-01-30T10:39:54.195Z,28.02
2023-01-30T10:42:08.220Z,27.90
2023-01-30T10:44:34.262Z,28.03
2023-01-30T10:47:00.706Z,27.63
2023-01-30T10:49:27.044Z,27.71
2023-01-30T10:51:53.424Z,27.76
2023-01-30T10:54:20.080Z,27.72
2023-01-30T10:56:46.198Z,27.55
2023-01-30T10:59:12.510Z,27.54
2023-01-30T11:01:38.934Z,27.68
2023-01-30T11:04:05.315Z,27.62
2023-01-30T11:06:31.655Z,27.60
2023-01-30T11:08:58.061Z,27.86
2023-01-30T11:11:24.454Z,27.79
2023-01-30T11:13:50.813Z,27.93
2023-01-30T11:16:17.167Z,27.92
2023-01-30T11:21:09.898Z,27.73
2023-01-30T11:23:36.314Z,27.61
2023-01-30T11:26:11.213Z,27.63
2023-01-30T11:28:29.055Z,27.56
2023-01-30T11:30:55.410Z,27.47
2023-01-30T11:33:21.823Z,27.68
2023-01-30T11:35:48.141Z,27.42
2023-01-30T11:38:14.541Z,27.38
2023-01-30T11:40:40.896Z,27.48
2023-01-30T11:43:07.303Z,27.54
2023-01-30T11:45:33.678Z,27.42
2023-01-30T11:48:03.711Z,27.30
2023-01-30T11:50:28.858Z,27.12
2023-01-30T11:52:52.824Z,27.14
2023-01-30T11:55:19.245Z,27.35
2023-01-30T11:57:45.600Z,27.34
2023-01-30T12:00:11.960Z,27.21
2023-01-30T12:02:38.452Z,26.96
2023-01-30T12:05:04.737Z,27.02
2023-01-30T12:07:31.232Z,27.13
2023-01-30T12:09:57.602Z,27.33
2023-01-30T12:12:24.001Z,27.15
2023-01-30T12:14:50.355Z,26.99
2023-01-30T12:17:16.767Z,27.12
2023-01-30T12:19:43.191Z,27.59
2023-01-30T12:22:09.582Z,27.22
2023-01-30T12:24:37.154Z,27.32
2023-01-30T12:27:02.356Z,27.31
2023-01-30T12:29:28.693Z,27.65
2023-01-30T12:31:55.099Z,27.41
2023-01-30T12:34:24.348Z,27.52
2023-01-30T12:36:47.863Z,27.21
2023-01-30T12:39:14.246Z,27.33
2023-01-30T12:41:40.646Z,27.26
2023-01-30T12:44:06.985Z,27.18
2023-01-30T12:46:33.489Z,27.43
2023-01-30T12:49:11.078Z,27.50
2023-01-30T12:51:26.167Z,27.67
2023-01-30T12:53:52.518Z,27.99
2023-01-30T12:56:18.940Z,27.70
2023-01-30T12:58:45.322Z,27.53
2023-01-30T13:01:11.721Z,27.46
2023-01-30T13:03:38.069Z,27.76
2023-01-30T13:06:04.457Z,27.59
2023-01-30T13:08:30.814Z,27.31
2023-01-30T13:10:57.206Z,27.12
2023-01-30T13:13:23.557Z,27.31
2023-01-30T13:15:50.698Z,27.34
2023-01-30T13:18:16.343Z,27.68
2023-01-30T13:20:42.764Z,27.96
2023-01-30T13:23:09.093Z,28.08
2023-01-30T13:25:37.730Z,27.90
2023-01-30T13:28:04.071Z,27.88
2023-01-30T13:30:30.499Z,27.89
2023-01-30T13:32:56.848Z,27.71
2023-01-30T13:35:23.238Z,27.37
2023-01-30T13:37:49.636Z,27.41
2023-01-30T13:40:18.367Z,27.83
2023-01-30T13:42:42.462Z,27.66
2023-01-30T13:45:08.893Z,27.38
2023-01-30T13:47:35.238Z,27.39
2023-01-30T13:50:01.651Z,27.33
2023-01-30T13:52:27.981Z,27.56
2023-01-30T13:54:54.468Z,27.76
2023-01-30T13:57:20.748Z,27.90
2023-01-30T13:59:47.128Z,27.58
2023-01-30T14:02:13.468Z,27.54
2023-01-30T14:04:39.840Z,27.44
2023-01-30T14:07:06.178Z,27.48
2023-01-30T14:09:32.578Z,27.60
2023-01-30T14:11:58.915Z,27.57
2023-01-30T14:14:25.337Z,27.18
2023-01-30T14:16:51.681Z,27.13
2023-01-30T14:19:18.077Z,27.12
2023-01-30T14:21:44.425Z,27.05
2023-01-30T14:24:10.825Z,26.98
2023-01-30T14:26:37.270Z,26.99
2023-01-30T14:29:03.554Z,26.92
2023-01-30T14:31:30.025Z,27.02
2023-01-30T14:33:56.297Z,27.35
2023-01-30T14:36:22.654Z,27.74
2023-01-30T14:38:49.035Z,27.76
2023-01-30T14:41:15.411Z,27.50
2023-01-30T14:43:41.827Z,27.50
2023-01-30T14:46:09.041Z,27.56
2023-01-30T14:48:36.111Z,27.32
2023-01-30T14:51:00.923Z,27.66
2023-01-30T14:53:27.309Z,27.96
2023-01-30T14:55:53.654Z,27.90
2023-01-30T14:58:22.472Z,27.68
2023-01-30T15:00:48.847Z,27.94
2023-01-30T15:03:15.190Z,28.00
2023-01-30T15:05:41.535Z,27.89
2023-01-30T15:08:07.925Z,27.94
2023-01-30T15:10:34.356Z,27.32
2023-01-30T15:13:00.767Z,27.82
2023-01-30T15:15:27.127Z,27.59
2023-01-30T15:18:06.993Z,27.58
2023-01-30T15:20:20.216Z,27.55
2023-01-30T15:22:46.273Z,27.40
2023-01-30T15:25:12.649Z,27.73
2023-01-30T15:27:39.069Z,27.81
2023-01-30T15:30:05.504Z,27.95
2023-01-30T15:32:31.840Z,28.05
2023-01-30T15:34:58.186Z,27.97
2023-01-30T15:37:24.573Z,27.60
2023-01-30T15:39:50.922Z,27.67
2023-01-30T15:42:17.308Z,27.84
2023-01-30T15:44:43.646Z,27.72
2023-01-30T15:47:10.023Z,27.38
2023-01-30T15:49:36.365Z,27.51
2023-01-30T15:52:02.755Z,27.42
2023-01-30T15:54:29.093Z,27.40
2023-01-30T15:56:55.491Z,27.43
2023-01-30T15:59:21.875Z,27.61
2023-01-30T16:01:48.262Z,27.54
2023-01-30T16:04:14.603Z,27.61
2023-01-30T16:06:40.991Z,27.79
2023-01-30T16:09:07.336Z,27.65
2023-01-30T16:11:33.739Z,27.71
2023-01-30T16:14:00.107Z,27.70
2023-01-30T16:16:26.528Z,27.49
2023-01-30T16:18:52.885Z,27.48
2023-01-30T16:21:19.282Z,27.60
2023-01-30T16:23:45.614Z,27.50
2023-01-30T16:26:12.079Z,27.69
2023-01-30T16:28:38.397Z,27.37
2023-01-30T16:31:04.900Z,27.51
2023-01-30T16:33:31.127Z,27.49
2023-01-30T16:35:57.555Z,27.68
2023-01-30T16:38:23.903Z,27.76
2023-01-30T16:40:50.290Z,28.05
2023-01-30T16:43:16.630Z,27.72
2023-01-30T16:45:43.036Z,27.80
2023-01-30T16:48:11.983Z,27.47
2023-01-30T16:50:38.372Z,27.77
2023-01-30T16:53:04.719Z,27.88
2023-01-30T16:55:31.106Z,27.75
2023-01-30T16:57:59.915Z,27.46
2023-01-30T17:00:26.292Z,27.60
2023-01-30T17:02:52.636Z,27.76
2023-01-30T17:05:19.052Z,27.89
2023-01-30T17:07:45.404Z,27.79
2023-01-30T17:10:11.827Z,27.79
2023-01-30T17:12:38.183Z,27.83
2023-01-30T17:15:04.571Z,27.67
2023-01-30T17:17:30.924Z,27.69
2023-01-30T17:19:57.383Z,27.89
2023-01-30T17:22:23.759Z,27.28
2023-01-30T17:24:50.187Z,27.47
2023-01-30T17:27:16.519Z,27.41
2023-01-30T17:29:43.934Z,27.42
2023-01-30T17:32:09.272Z,27.80
2023-01-30T17:34:35.692Z,27.54
2023-01-30T17:37:02.037Z,27.40
2023-01-30T17:39:28.447Z,27.44
2023-01-30T17:41:54.834Z,27.55
2023-01-30T17:44:21.216Z,27.36
2023-01-30T17:46:47.576Z,27.28
2023-01-30T17:49:13.949Z,27.42
2023-01-30T17:51:40.296Z,27.50
2023-01-30T17:54:06.697Z,27.56
2023-01-30T17:56:33.047Z,27.79
2023-01-30T17:58:59.476Z,27.54
2023-01-30T18:01:25.884Z,27.63
2023-01-30T18:03:52.214Z,27.52
2023-01-30T18:06:18.557Z,27.54
2023-01-30T18:08:44.981Z,27.29
2023-01-30T18:11:12.556Z,27.77
2023-01-30T18:13:37.723Z,27.57
2023-01-30T18:16:04.136Z,27.54
2023-01-30T18:18:30.556Z,27.34
2023-01-30T18:20:56.891Z,27.50
2023-01-30T18:23:23.277Z,27.42
2023-01-30T18:25:49.625Z,27.41
2023-01-30T18:28:16.011Z,27.59
2023-01-30T18:30:42.395Z,27.15
2023-01-30T18:33:08.747Z,27.43
2023-01-30T18:35:35.096Z,26.94
2023-01-30T18:38:02.920Z,27.04
2023-01-30T18:40:27.821Z,26.55
2023-01-30T18:42:54.220Z,26.99
2023-01-30T18:45:23.077Z,27.12
2023-01-30T18:47:49.466Z,27.33
2023-01-30T18:50:15.849Z,27.23
2023-01-30T18:52:42.289Z,27.31
2023-01-30T18:55:08.611Z,27.11
2023-01-30T18:57:34.997Z,27.40
2023-01-30T19:00:01.357Z,27.42
2023-01-30T19:02:27.761Z,27.46
2023-01-30T19:04:54.096Z,27.08
2023-01-30T19:07:20.497Z,27.12
2023-01-30T19:09:46.851Z,27.15
2023-01-30T19:12:13.252Z,27.25
2023-01-30T19:14:39.592Z,27.25
2023-01-30T19:17:05.997Z,27.44
2023-01-30T19:19:32.587Z,27.56
2023-01-30T19:21:58.759Z,27.66
2023-01-30T19:24:25.199Z,27.71
2023-01-30T19:26:51.647Z,27.85
2023-01-30T19:29:17.868Z,27.97
2023-01-30T19:31:44.397Z,27.99
2023-01-30T19:34:10.686Z,28.13
2023-01-30T19:36:37.078Z,28.17
2023-01-30T19:39:03.519Z,28.29
2023-01-30T19:41:30.064Z,28.31
2023-01-30T19:43:56.411Z,28.49
2023-01-30T19:46:22.881Z,28.59
2023-01-30T19:48:49.153Z,28.75
2023-01-30T19:51:15.794Z,28.74
2023-01-30T19:53:41.885Z,28.84
2023-01-30T19:56:08.268Z,28.82
2023-01-30T19:58:34.608Z,28.88
2023-01-30T20:01:01.001Z,28.89
2023-01-30T20:03:27.336Z,28.99
2023-01-30T20:05:53.723Z,28.95
2023-01-30T20:08:31.943Z,29.06
2023-01-30T20:10:46.458Z,29.10
2023-01-30T20:13:13.363Z,29.10
2023-01-30T20:15:39.222Z,29.20
2023-01-30T20:18:05.559Z,29.19
2023-01-30T20:20:31.958Z,29.27
2023-01-30T20:22:58.295Z,29.30
2023-01-30T20:25:24.710Z,29.36
2023-01-30T20:27:51.033Z,29.41
2023-01-30T20:30:17.815Z,29.47
2023-01-30T20:32:43.758Z,29.47
2023-01-30T20:35:10.146Z,29.53
2023-01-30T20:37:36.498Z,29.56
2023-01-30T20:40:02.895Z,29.63
2023-01-30T20:42:29.241Z,29.70
2023-01-30T20:44:55.639Z,29.81
2023-01-30T20:47:21.983Z,29.78
2023-01-30T20:49:48.373Z,29.85
2023-01-30T20:52:14.713Z,29.91
2023-01-30T20:54:41.106Z,29.98
2023-01-30T20:57:07.474Z,30.00
2023-01-30T20:59:33.840Z,29.98
2023-01-30T21:02:00.180Z,30.04
2023-01-30T21:04:26.650Z,30.05
2023-01-30T21:06:52.950Z,30.10
2023-01-30T21:09:20.748Z,30.17
2023-01-30T21:11:48.123Z,30.21
2023-01-30T21:14:14.500Z,30.17
2023-01-30T21:16:40.937Z,30.26
2023-01-30T21:19:08.195Z,30.30
2023-01-30T21:21:33.593Z,30.33
2023-01-30T21:23:59.980Z,30.40
2023-01-30T21:26:26.375Z,30.41
2023-01-30T21:28:52.665Z,30.45
2023-01-30T21:31:19.134Z,30.50
2023-01-30T21:33:45.410Z,30.53
2023-01-30T21:36:11.799Z,30.56
2023-01-30T21:38:38.146Z,30.56
2023-01-30T21:41:04.532Z,30.62
2023-01-30T21:43:30.901Z,30.62
2023-01-30T21:45:57.293Z,30.67
2023-01-30T21:48:23.633Z,30.75
2023-01-30T21:50:50.051Z,30.75
2023-01-30T21:53:16.367Z,30.82
2023-01-30T21:55:42.748Z,30.84
2023-01-30T21:58:09.088Z,30.83
2023-01-30T22:00:35.503Z,30.95
2023-01-30T22:03:01.845Z,31.04
2023-01-30T22:05:28.276Z,30.95
2023-01-30T22:07:54.607Z,30.98
2023-01-30T22:10:21.252Z,31.08
2023-01-30T22:12:47.581Z,31.11
2023-01-30T22:15:13.970Z,31.19
2023-01-30T22:17:40.329Z,31.25
2023-01-30T22:20:06.713Z,31.25
2023-01-30T22:22:33.120Z,31.26
2023-01-30T22:24:59.513Z,31.37
2023-01-30T22:27:25.928Z,31.42
2023-01-30T22:29:52.323Z,31.43
2023-01-30T22:32:18.670Z,31.46
2023-01-30T22:34:45.058Z,31.52
2023-01-30T22:37:11.410Z,31.53
2023-01-30T22:39:38.356Z,31.53
2023-01-30T22:42:04.145Z,31.56
2023-01-30T22:44:30.540Z,31.61
2023-01-30T22:46:56.958Z,31.63
2023-01-30T22:49:23.293Z,31.74
2023-01-30T22:51:49.632Z,31.72
2023-01-30T22:54:16.161Z,31.75
2023-01-30T22:56:42.374Z,31.78
2023-01-30T22:59:08.775Z,31.82
2023-01-30T23:01:35.825Z,31.77
2023-01-30T23:04:01.571Z,31.78
2023-01-30T23:06:27.863Z,31.82
2023-01-30T23:08:54.265Z,31.82
2023-01-30T23:11:20.592Z,31.86
2023-01-30T23:13:46.985Z,31.87
2023-01-30T23:16:13.352Z,31.91
2023-01-30T23:18:40.235Z,31.88
2023-01-30T23:21:06.059Z,31.89
2023-01-30T23:23:32.439Z,31.91
2023-01-30T23:25:58.781Z,31.92
2023-01-30T23:28:25.230Z,31.91
2023-01-30T23:30:51.644Z,31.93
2023-01-30T23:33:17.952Z,31.92
2023-01-30T23:35:45.172Z,31.95
2023-01-30T23:38:10.870Z,31.95
2023-01-30T23:40:37.596Z,31.95
2023-01-30T23:43:03.633Z,32.00
2023-01-30T23:45:29.972Z,32.03
2023-01-30T23:47:58.070Z,32.01
2023-01-30T23:50:24.423Z,32.05
2023-01-30T23:52:50.807Z,32.11
2023-01-30T23:55:17.632Z,32.11
2023-01-30T23:57:43.528Z,32.07
